createdAt,value
2019-03-13T00:04:36.309Z,7.37
2019-03-13T00:07:24.026Z,7.36
2019-03-13T00:10:11.798Z,7.33
2019-03-13T00:12:41.858Z,7.34
2019-03-13T00:15:50.214Z,7.35
2019-03-13T00:18:18.628Z,7.36
2019-03-13T00:21:06.453Z,7.39
2019-03-13T00:23:34.850Z,7.40
2019-03-13T00:26:03.239Z,7.47
2019-03-13T00:31:26.318Z,7.49
2019-03-13T00:33:54.719Z,7.48
2019-03-13T00:36:23.111Z,7.51
2019-03-13T00:41:25.439Z,7.53
2019-03-13T00:43:53.843Z,7.54
2019-03-13T00:51:41.946Z,7.54
2019-03-13T00:56:44.328Z,7.53
2019-03-13T01:02:06.205Z,7.44
2019-03-13T01:07:10.237Z,7.34
2019-03-13T01:09:38.631Z,7.31
2019-03-13T01:12:47.144Z,7.25
2019-03-13T01:15:55.464Z,7.22
2019-03-13T01:18:23.886Z,7.18
2019-03-13T01:20:52.273Z,7.14
2019-03-13T01:23:20.678Z,7.11
2019-03-13T01:28:23.042Z,7.08
2019-03-13T01:31:10.664Z,7.10
2019-03-13T01:33:39.055Z,7.09
2019-03-13T01:41:30.034Z,7.03
2019-03-13T01:46:32.798Z,7.07
2019-03-13T01:49:01.211Z,7.08
2019-03-13T01:51:29.609Z,7.10
2019-03-13T01:53:57.999Z,7.09
2019-03-13T01:59:00.396Z,7.08
2019-03-13T02:01:28.785Z,7.08
2019-03-13T02:03:57.234Z,7.07
2019-03-13T02:06:44.879Z,7.09
2019-03-13T02:11:47.787Z,7.14
2019-03-13T02:14:16.198Z,7.16
2019-03-13T02:16:44.595Z,7.17
2019-03-13T02:19:12.991Z,7.12
2019-03-13T02:24:15.842Z,7.14
2019-03-13T02:26:44.262Z,7.16
2019-03-13T02:29:12.653Z,7.21
2019-03-13T02:31:41.042Z,7.25
2019-03-13T02:34:09.448Z,7.30
2019-03-13T02:36:37.837Z,7.35
2019-03-13T02:39:25.638Z,7.40
2019-03-13T02:41:54.012Z,7.48
2019-03-13T02:44:22.398Z,7.58
2019-03-13T02:46:50.844Z,7.71
2019-03-13T02:49:38.557Z,7.79
2019-03-13T03:22:14.684Z,9.10
2019-03-13T03:24:55.589Z,9.01
2019-03-13T03:27:23.997Z,8.93
2019-03-13T03:29:52.376Z,8.84
2019-03-13T03:32:20.792Z,8.73
2019-03-13T03:34:49.181Z,8.63
2019-03-13T03:37:17.612Z,8.51
2019-03-13T04:04:26.601Z,7.74
2019-03-13T04:06:54.992Z,7.65
2019-03-13T04:09:23.384Z,7.61
2019-03-13T04:14:25.395Z,7.50
2019-03-13T04:16:53.782Z,7.40
2019-03-13T04:21:56.509Z,6.75
2019-03-13T04:24:24.928Z,6.50
2019-03-13T04:26:53.326Z,6.39
2019-03-13T04:29:21.767Z,6.33
2019-03-13T04:31:50.163Z,6.27
2019-03-13T04:34:18.560Z,6.24
2019-03-13T04:36:46.999Z,6.20
2019-03-13T04:41:49.743Z,6.11
2019-03-13T04:46:52.195Z,6.07
2019-03-13T04:51:54.442Z,5.99
2019-03-13T04:54:22.836Z,5.97
2019-03-13T04:56:51.247Z,5.95
2019-03-13T04:59:19.645Z,5.95
2019-03-13T05:01:48.031Z,5.95
2019-03-13T05:04:35.786Z,5.96
2019-03-13T05:07:04.193Z,5.97
2019-03-13T05:09:51.959Z,5.94
2019-03-13T05:12:20.349Z,5.91
2019-03-13T05:14:48.745Z,5.92
2019-03-13T05:19:51.323Z,5.96
2019-03-13T05:24:53.985Z,6.08
2019-03-13T05:27:36.768Z,6.10
2019-03-13T05:30:45.101Z,6.09
2019-03-13T05:35:47.071Z,6.03
2019-03-13T05:38:15.463Z,5.95
2019-03-13T05:43:17.554Z,5.84
2019-03-13T05:45:45.967Z,5.81
2019-03-13T05:48:14.363Z,5.78
2019-03-13T05:50:42.766Z,5.72
2019-03-13T05:53:11.191Z,5.69
2019-03-13T05:55:39.579Z,5.65
2019-03-13T05:58:07.970Z,5.63
2019-03-13T06:03:10.140Z,5.58
2019-03-13T06:05:38.542Z,5.62
2019-03-13T06:08:26.297Z,5.65
2019-03-13T06:10:54.687Z,5.65
2019-03-13T06:13:23.085Z,5.66
2019-03-13T06:18:45.017Z,5.68
2019-03-13T06:21:13.430Z,5.70
2019-03-13T06:23:41.831Z,5.73
2019-03-13T06:26:10.227Z,5.81
2019-03-13T06:31:31.928Z,5.96
2019-03-13T06:36:34.299Z,6.05
2019-03-13T06:41:36.721Z,6.01
2019-03-13T06:44:05.216Z,6.00
2019-03-13T06:46:33.607Z,5.99
2019-03-13T06:49:42.158Z,6.01
2019-03-13T06:52:10.552Z,5.99
2019-03-13T06:54:38.947Z,5.99
2019-03-13T07:00:00.422Z,5.93
2019-03-13T07:02:48.233Z,5.95
2019-03-13T07:05:35.751Z,5.94
2019-03-13T07:08:23.385Z,5.98
2019-03-13T07:11:10.900Z,6.06
2019-03-13T07:13:58.456Z,6.09
2019-03-13T07:16:45.996Z,6.13
2019-03-13T07:19:33.545Z,6.17
2019-03-13T07:22:21.060Z,6.21
2019-03-13T07:25:08.653Z,6.26
2019-03-13T07:27:56.193Z,6.30
2019-03-13T07:30:41.547Z,6.32
2019-03-13T07:36:18.181Z,6.43
2019-03-13T07:39:05.708Z,6.51
2019-03-13T07:41:53.324Z,6.58
2019-03-13T07:47:29.936Z,6.52
2019-03-13T07:50:17.458Z,6.55
2019-03-13T07:53:05.009Z,6.57
2019-03-13T07:58:44.092Z,6.63
2019-03-13T08:01:30.872Z,6.64
2019-03-13T08:06:57.065Z,6.66
2019-03-13T08:09:44.597Z,6.74
2019-03-13T08:12:32.234Z,6.78
2019-03-13T08:18:09.257Z,6.87
2019-03-13T08:20:56.785Z,6.94
2019-03-13T08:23:44.653Z,6.88
2019-03-13T08:26:51.502Z,6.83
2019-03-13T08:29:39.066Z,6.83
2019-03-13T08:35:34.787Z,6.77
2019-03-13T08:41:32.209Z,6.70
2019-03-13T08:44:19.723Z,6.69
2019-03-13T08:47:07.359Z,6.79
2019-03-13T08:49:54.892Z,6.82
2019-03-13T08:52:42.521Z,6.85
2019-03-13T08:55:30.181Z,6.93
2019-03-13T08:58:17.816Z,7.02
2019-03-13T09:01:05.338Z,7.03
2019-03-13T09:03:52.887Z,6.97
2019-03-13T09:09:29.492Z,7.04
2019-03-13T09:12:17.020Z,7.08
2019-03-13T09:15:04.658Z,7.15
2019-03-13T09:17:52.211Z,7.12
2019-03-13T09:20:39.760Z,7.17
2019-03-13T09:23:27.292Z,7.25
2019-03-13T09:29:09.544Z,7.45
2019-03-13T09:31:57.069Z,7.50
2019-03-13T09:34:44.755Z,7.62
2019-03-13T09:37:32.271Z,7.78
2019-03-13T09:42:55.495Z,8.05
2019-03-13T09:45:43.020Z,8.07
2019-03-13T09:48:30.715Z,8.11
2019-03-13T09:51:30.503Z,8.24
2019-03-13T09:56:49.147Z,8.32
2019-03-13T09:59:43.335Z,8.23
2019-03-13T10:02:46.755Z,8.19
2019-03-13T10:05:34.273Z,8.15
2019-03-13T10:08:21.829Z,8.04
2019-03-13T10:17:10.065Z,8.03
2019-03-13T10:22:37.010Z,8.17
2019-03-13T10:25:45.374Z,8.32
2019-03-13T10:28:33.341Z,8.46
2019-03-13T10:31:20.851Z,8.74
2019-03-13T10:36:43.623Z,8.82
2019-03-13T10:39:31.146Z,8.81
2019-03-13T10:45:17.224Z,8.72
2019-03-13T10:48:04.748Z,8.71
2019-03-13T10:53:47.293Z,8.82
2019-03-13T10:56:54.141Z,8.83
2019-03-13T11:00:01.085Z,8.86
2019-03-13T11:02:48.601Z,8.84
2019-03-13T11:05:36.150Z,8.83
2019-03-13T11:08:42.991Z,8.85
2019-03-13T11:16:44.765Z,9.13
2019-03-13T11:25:00.173Z,9.17
2019-03-13T11:27:47.886Z,9.16
2019-03-13T11:30:56.225Z,9.22
2019-03-13T11:33:43.745Z,9.31
2019-03-13T11:39:09.873Z,9.51
2019-03-13T11:41:57.389Z,9.56
2019-03-13T11:47:20.521Z,9.45
2019-03-13T11:50:08.041Z,9.44
2019-03-13T11:52:55.591Z,9.48
2019-03-13T12:01:30.452Z,9.58
2019-03-13T12:04:17.969Z,9.66
2019-03-13T12:07:05.525Z,9.70
2019-03-13T12:09:53.041Z,9.67
2019-03-13T12:12:40.654Z,9.59
2019-03-13T12:15:48.971Z,9.54
2019-03-13T12:18:36.595Z,9.46
2019-03-13T12:21:44.910Z,9.41
2019-03-13T12:24:32.537Z,9.34
2019-03-13T12:27:20.129Z,9.23
2019-03-13T12:30:07.678Z,9.15
2019-03-13T12:32:55.198Z,9.15
2019-03-13T12:35:43.071Z,9.28
2019-03-13T12:38:30.580Z,9.43
2019-03-13T12:41:20.309Z,9.58
2019-03-13T12:44:28.619Z,9.58
2019-03-13T12:47:18.815Z,9.73
2019-03-13T12:50:06.353Z,10.01
2019-03-13T12:52:53.906Z,10.24
2019-03-13T12:55:41.423Z,10.38
2019-03-13T12:58:28.975Z,10.55
2019-03-13T13:01:16.499Z,10.67
2019-03-13T13:04:04.131Z,10.51
2019-03-13T13:06:51.721Z,10.30
2019-03-13T13:09:39.269Z,10.30
2019-03-13T13:12:26.793Z,10.46
2019-03-13T13:15:14.443Z,10.67
2019-03-13T13:18:02.015Z,10.76
2019-03-13T13:25:40.113Z,10.39
2019-03-13T13:31:01.534Z,10.37
2019-03-13T13:33:29.967Z,10.43
2019-03-13T13:35:58.397Z,10.42
2019-03-13T13:38:46.234Z,10.44
2019-03-13T13:41:14.605Z,10.47
2019-03-13T13:43:55.641Z,10.54
2019-03-13T13:47:18.236Z,10.51
2019-03-13T13:52:08.243Z,10.47
2019-03-13T13:57:10.856Z,10.57
2019-03-13T13:59:39.275Z,10.68
2019-03-13T14:02:07.733Z,10.75
2019-03-13T14:04:36.127Z,10.79
2019-03-13T14:07:23.882Z,10.76
2019-03-13T14:09:52.289Z,10.72
2019-03-13T14:12:20.690Z,10.73
2019-03-13T14:14:49.125Z,10.75
2019-03-13T14:17:17.522Z,10.76
2019-03-13T14:19:45.917Z,10.76
2019-03-13T14:24:48.735Z,10.93
2019-03-13T14:27:17.207Z,11.02
2019-03-13T14:29:47.174Z,11.06
2019-03-13T14:32:26.293Z,11.11
2019-03-13T14:34:54.697Z,11.22
2019-03-13T14:37:23.092Z,11.18
2019-03-13T14:39:51.513Z,11.07
2019-03-13T14:42:19.911Z,10.99
2019-03-13T14:44:48.327Z,10.89
2019-03-13T14:49:51.121Z,10.81
2019-03-13T14:54:53.565Z,10.74
2019-03-13T14:57:22.099Z,10.78
2019-03-13T14:59:50.493Z,10.85
2019-03-13T15:02:18.897Z,10.81
2019-03-13T15:07:21.233Z,10.40
2019-03-13T15:12:23.331Z,10.05
2019-03-13T15:14:51.715Z,10.04
2019-03-13T15:19:54.610Z,9.79
2019-03-13T15:24:57.689Z,9.69
2019-03-13T15:27:26.101Z,9.53
2019-03-13T15:29:54.512Z,9.47
2019-03-13T15:32:22.900Z,9.47
2019-03-13T15:37:25.303Z,9.11
2019-03-13T15:39:53.729Z,8.91
2019-03-13T15:42:22.119Z,8.86
2019-03-13T15:44:50.516Z,8.84
2019-03-13T15:47:18.931Z,8.78
2019-03-13T15:49:47.327Z,8.84
2019-03-13T15:55:44.835Z,8.84
2019-03-13T15:58:13.231Z,8.90
2019-03-13T16:00:41.626Z,8.90
2019-03-13T16:05:44.286Z,8.69
2019-03-13T16:08:12.715Z,8.50
2019-03-13T16:10:41.107Z,8.32
2019-03-13T16:13:09.506Z,8.23
2019-03-13T16:15:57.133Z,8.29
2019-03-13T16:18:25.529Z,8.39
2019-03-13T16:20:53.983Z,8.45
2019-03-13T16:23:22.391Z,8.44
2019-03-13T16:25:50.783Z,8.48
2019-03-13T16:28:19.170Z,8.57
2019-03-13T16:31:06.719Z,8.65
2019-03-13T16:33:35.141Z,8.70
2019-03-13T16:36:22.887Z,8.74
2019-03-13T16:38:51.283Z,8.81
2019-03-13T16:41:19.679Z,8.80
2019-03-13T16:43:48.146Z,8.74
2019-03-13T16:46:35.860Z,8.65
2019-03-13T16:49:23.609Z,8.59
2019-03-13T16:51:51.997Z,8.60
2019-03-13T16:54:20.421Z,8.57
2019-03-13T16:59:23.162Z,8.51
2019-03-13T17:04:25.147Z,8.36
2019-03-13T17:06:53.661Z,8.29
2019-03-13T17:09:22.247Z,8.23
2019-03-13T17:11:50.692Z,8.25
2019-03-13T17:14:19.047Z,8.27
2019-03-13T17:19:21.236Z,8.26
2019-03-13T17:24:44.457Z,8.18
2019-03-13T17:27:12.958Z,8.19
2019-03-13T17:29:41.435Z,8.18
2019-03-13T17:32:10.163Z,8.15
2019-03-13T17:34:38.555Z,8.08
2019-03-13T17:37:06.942Z,8.01
2019-03-13T17:42:09.274Z,7.89
2019-03-13T17:47:11.397Z,7.77
2019-03-13T17:49:39.867Z,7.73
2019-03-13T17:52:21.103Z,7.71
2019-03-13T17:54:49.491Z,7.65
2019-03-13T17:57:17.883Z,7.54
2019-03-13T18:02:19.853Z,7.34
2019-03-13T18:04:48.275Z,7.19
2019-03-13T18:07:16.669Z,7.05
2019-03-13T18:09:45.093Z,6.98
2019-03-13T18:14:47.830Z,6.93
2019-03-13T18:19:50.286Z,6.85
2019-03-13T18:22:20.023Z,6.83
2019-03-13T18:24:48.413Z,6.82
2019-03-13T18:27:36.153Z,6.80
2019-03-13T18:30:44.471Z,6.78
2019-03-13T18:40:56.742Z,6.76
2019-03-13T18:43:25.236Z,6.75
2019-03-13T18:45:53.728Z,6.73
2019-03-13T18:48:22.102Z,6.75
2019-03-13T18:50:50.603Z,6.72
2019-03-13T18:53:18.997Z,6.72
2019-03-13T18:55:47.521Z,6.74
2019-03-13T18:58:35.166Z,6.76
2019-03-13T19:01:22.865Z,6.79
2019-03-13T19:03:51.279Z,6.77
2019-03-13T19:06:19.782Z,6.80
2019-03-13T19:11:35.627Z,6.83
2019-03-13T19:14:04.017Z,6.83
2019-03-13T19:16:32.418Z,6.81
2019-03-13T19:21:35.085Z,6.83
2019-03-13T19:24:03.496Z,6.81
2019-03-13T19:26:31.883Z,6.80
2019-03-13T19:29:01.703Z,6.79
2019-03-13T19:34:03.951Z,6.75
2019-03-13T19:36:51.641Z,6.77
2019-03-13T19:39:22.514Z,6.79
2019-03-13T19:44:43.353Z,6.83
2019-03-13T19:47:11.745Z,6.88
2019-03-13T19:52:13.732Z,6.93
2019-03-13T19:54:42.186Z,6.92
2019-03-13T19:57:10.591Z,6.90
2019-03-13T19:59:39.111Z,6.88
2019-03-13T20:02:07.544Z,6.87
2019-03-13T20:04:46.797Z,6.89
2019-03-13T20:07:25.402Z,6.90
2019-03-13T20:10:13.127Z,6.92
2019-03-13T20:12:41.540Z,6.94
2019-03-13T20:15:49.949Z,6.95
2019-03-13T20:18:18.429Z,6.97
2019-03-13T20:20:48.467Z,6.98
2019-03-13T20:23:56.920Z,7.01
2019-03-13T20:26:25.424Z,7.04
2019-03-13T20:32:07.387Z,7.05
2019-03-13T20:34:35.853Z,7.08
2019-03-13T20:37:37.471Z,7.09
2019-03-13T20:39:53.714Z,7.10
2019-03-13T20:45:49.544Z,7.15
2019-03-13T20:53:58.445Z,7.24
2019-03-13T20:56:26.846Z,7.25
2019-03-13T21:01:28.957Z,7.28
2019-03-13T21:07:05.343Z,7.34
2019-03-13T21:09:33.807Z,7.37
2019-03-13T21:12:02.212Z,7.40
2019-03-13T21:14:30.661Z,7.39
2019-03-13T21:16:59.092Z,7.41
2019-03-13T21:19:27.479Z,7.39
2019-03-13T21:21:55.896Z,7.41
2019-03-13T21:24:24.324Z,7.42
2019-03-13T21:26:52.715Z,7.42
2019-03-13T21:29:21.117Z,7.42
2019-03-13T21:34:23.445Z,7.44
2019-03-13T21:36:51.835Z,7.40
2019-03-13T21:39:20.335Z,7.36
2019-03-13T21:42:08.053Z,7.34
2019-03-13T21:44:36.459Z,7.33
2019-03-13T21:47:04.854Z,7.32
2019-03-13T21:49:33.249Z,7.35
2019-03-13T21:54:35.643Z,7.37
2019-03-13T21:57:23.327Z,7.39
2019-03-13T21:59:51.717Z,7.41
2019-03-13T22:02:31.851Z,7.40
2019-03-13T22:04:50.261Z,7.40
2019-03-13T22:07:18.740Z,7.37
2019-03-13T22:09:47.169Z,7.12
2019-03-13T22:12:15.550Z,6.85
2019-03-13T22:14:43.953Z,6.66
2019-03-13T22:17:12.343Z,6.45
2019-03-13T22:19:40.761Z,6.26
2019-03-13T22:22:09.155Z,6.10
2019-03-13T22:24:37.547Z,6.02
2019-03-13T22:29:39.917Z,5.73
2019-03-13T22:34:42.127Z,5.62
2019-03-13T22:37:10.656Z,5.63
2019-03-13T22:39:39.027Z,5.65
2019-03-13T22:42:07.419Z,5.65
2019-03-13T22:44:35.843Z,5.63
2019-03-13T22:47:04.234Z,5.65
2019-03-13T22:49:32.632Z,5.65
2019-03-13T22:54:35.559Z,5.67
2019-03-13T22:57:05.395Z,5.64
2019-03-13T22:59:33.801Z,5.65
2019-03-13T23:02:21.559Z,5.63
2019-03-13T23:04:49.942Z,5.61
2019-03-13T23:07:37.610Z,5.51
2019-03-13T23:10:45.923Z,5.43
2019-03-13T23:13:33.627Z,5.36
2019-03-13T23:16:02.022Z,5.30
2019-03-13T23:18:30.415Z,5.29
2019-03-13T23:20:58.839Z,5.31
2019-03-13T23:23:27.233Z,5.31
2019-03-13T23:25:55.622Z,5.32
2019-03-13T23:30:58.810Z,5.29
2019-03-13T23:33:27.225Z,5.26
2019-03-13T23:35:55.654Z,5.25
2019-03-13T23:38:24.047Z,5.30
2019-03-13T23:41:11.654Z,5.33
2019-03-13T23:43:40.050Z,5.37
2019-03-13T23:46:08.441Z,5.39
2019-03-13T23:48:36.863Z,5.43
2019-03-13T23:51:05.273Z,5.48
2019-03-13T23:53:33.665Z,5.55
2019-03-13T23:56:02.085Z,5.63
2019-03-13T23:58:30.481Z,5.68
